Time;durP1;ratioP1;P1;durP2;ratioP2;P2;SDS_P1;SDS_P2;PMS_P1;PMS_P2;Temp;Humidity;BMP_temperature;BMP_pressure;BME280_temperature;BME280_humidity;BME280_pressure;Samples;Min_cycle;Max_cycle;Signal;HPM_P1;HPM_P2
2023/06/26 00:00:07;;;;;;;7.15;6.32;;;;;;;;;;5090253;28;20056;-63
2023/06/26 00:02:34;;;;;;;7.70;6.88;;;;;;;;;;5091989;28;20055;-63
2023/06/26 00:05:02;;;;;;;7.88;6.75;;;;;;;;;;5090174;28;20047;-63
2023/06/26 00:07:29;;;;;;;7.50;6.70;;;;;;;;;;5086956;28;20048;-63
2023/06/26 00:09:56;;;;;;;6.28;5.65;;;;;;;;;;5092114;28;20056;-65
2023/06/26 00:12:24;;;;;;;7.25;6.47;;;;;;;;;;5091639;28;20052;-62
2023/06/26 00:14:51;;;;;;;7.43;6.70;;;;;;;;;;5091467;28;20048;-63
2023/06/26 00:17:18;;;;;;;7.10;5.93;;;;;;;;;;5092998;28;20047;-63
2023/06/26 00:19:44;;;;;;;8.93;7.03;;;;;;;;;;5093417;28;20056;-63
2023/06/26 00:22:11;;;;;;;8.82;6.90;;;;;;;;;;5089664;28;20052;-63
2023/06/26 00:24:38;;;;;;;8.25;6.03;;;;;;;;;;5083691;28;20052;-63
2023/06/26 00:27:05;;;;;;;8.20;6.18;;;;;;;;;;5093637;28;20052;-64
2023/06/26 00:29:33;;;;;;;9.00;7.15;;;;;;;;;;5081724;28;20056;-63
2023/06/26 00:32:00;;;;;;;7.38;6.68;;;;;;;;;;5089238;28;20272;-64
2023/06/26 00:34:27;;;;;;;8.30;6.90;;;;;;;;;;5090594;28;20052;-63
2023/06/26 00:36:54;;;;;;;8.43;7.55;;;;;;;;;;5081574;28;20515;-62
2023/06/26 00:39:20;;;;;;;7.28;6.45;;;;;;;;;;5088751;28;20056;-63
2023/06/26 00:41:47;;;;;;;9.20;7.03;;;;;;;;;;5094897;28;20059;-63
2023/06/26 00:44:14;;;;;;;10.20;7.07;;;;;;;;;;5091510;28;20044;-63
2023/06/26 00:46:42;;;;;;;8.38;7.00;;;;;;;;;;5089613;28;20047;-63
2023/06/26 00:49:09;;;;;;;8.50;6.90;;;;;;;;;;5090358;28;20048;-63
2023/06/26 00:51:36;;;;;;;7.47;6.50;;;;;;;;;;5091811;28;20411;-63
2023/06/26 00:54:03;;;;;;;10.88;7.30;;;;;;;;;;5090744;28;20051;-63
2023/06/26 00:56:31;;;;;;;7.93;6.80;;;;;;;;;;5094634;28;20044;-62
2023/06/26 00:58:58;;;;;;;10.27;7.55;;;;;;;;;;5087871;28;20063;-63
2023/06/26 01:01:25;;;;;;;9.85;7.43;;;;;;;;;;5092000;28;20516;-64
2023/06/26 01:03:54;;;;;;;8.23;7.25;;;;;;;;;;5096981;28;20051;-62
2023/06/26 01:06:21;;;;;;;7.47;6.70;;;;;;;;;;5089077;28;20063;-64
2023/06/26 01:08:48;;;;;;;7.95;7.10;;;;;;;;;;5091921;28;20048;-62
2023/06/26 01:11:15;;;;;;;10.73;6.93;;;;;;;;;;5092315;28;20410;-63
2023/06/26 01:13:43;;;;;;;8.10;6.97;;;;;;;;;;5092579;28;20052;-63
2023/06/26 01:16:11;;;;;;;11.32;7.75;;;;;;;;;;5089068;28;20048;-63
2023/06/26 01:18:42;;;;;;;9.95;7.68;;;;;;;;;;5088968;28;20052;-63
2023/06/26 01:21:12;;;;;;;7.40;6.43;;;;;;;;;;5093772;28;20063;-62
2023/06/26 01:23:43;;;;;;;8.02;7.22;;;;;;;;;;5091188;28;20048;-63
2023/06/26 01:26:17;;;;;;;9.32;7.15;;;;;;;;;;5073730;28;20049;-63
2023/06/26 01:28:44;;;;;;;8.88;7.82;;;;;;;;;;5083574;28;20067;-63
2023/06/26 01:31:11;;;;;;;12.23;7.15;;;;;;;;;;5083981;28;20060;-63
2023/06/26 01:33:38;;;;;;;9.18;6.95;;;;;;;;;;5091058;28;20052;-63
2023/06/26 01:36:05;;;;;;;8.05;7.10;;;;;;;;;;5088667;28;20044;-63
2023/06/26 01:38:32;;;;;;;7.93;7.00;;;;;;;;;;5094512;28;20047;-63
2023/06/26 01:40:59;;;;;;;10.43;7.60;;;;;;;;;;5090872;28;20149;-63
2023/06/26 01:43:32;;;;;;;9.82;7.63;;;;;;;;;;5091987;28;20409;-63
2023/06/26 01:46:03;;;;;;;11.80;8.38;;;;;;;;;;5092371;28;20052;-63
2023/06/26 01:48:32;;;;;;;8.73;7.35;;;;;;;;;;5092936;28;20052;-63
2023/06/26 01:50:59;;;;;;;9.73;7.78;;;;;;;;;;5094402;28;20430;-63
2023/06/26 01:53:31;;;;;;;9.15;7.20;;;;;;;;;;5098755;28;20048;-63
2023/06/26 01:56:01;;;;;;;10.88;7.20;;;;;;;;;;5093982;28;20484;-63
2023/06/26 01:58:29;;;;;;;9.00;7.32;;;;;;;;;;5095667;28;20052;-63
2023/06/26 02:00:56;;;;;;;9.48;7.57;;;;;;;;;;5093306;28;20052;-63
2023/06/26 02:03:24;;;;;;;11.90;8.32;;;;;;;;;;5093325;28;20056;-63
2023/06/26 02:05:50;;;;;;;10.48;7.57;;;;;;;;;;5092196;28;20692;-63
2023/06/26 02:08:17;;;;;;;12.13;7.68;;;;;;;;;;5096305;28;20044;-64
2023/06/26 02:10:44;;;;;;;12.88;8.32;;;;;;;;;;5093456;28;20048;-62
2023/06/26 02:13:11;;;;;;;9.70;7.68;;;;;;;;;;5094415;28;20052;-63
2023/06/26 02:15:40;;;;;;;8.85;7.38;;;;;;;;;;5093334;28;20051;-62
2023/06/26 02:18:06;;;;;;;9.70;7.53;;;;;;;;;;5093329;28;20055;-63
2023/06/26 02:20:33;;;;;;;9.45;7.50;;;;;;;;;;5103553;28;20051;-63
2023/06/26 02:23:00;;;;;;;11.02;7.35;;;;;;;;;;5097827;28;20048;-63
2023/06/26 02:25:27;;;;;;;13.68;7.97;;;;;;;;;;5088909;28;20503;-64
2023/06/26 02:27:54;;;;;;;9.35;7.60;;;;;;;;;;5084481;28;20476;-64
2023/06/26 02:30:22;;;;;;;10.52;7.68;;;;;;;;;;5088483;28;20061;-64
2023/06/26 02:32:50;;;;;;;10.30;7.28;;;;;;;;;;5092467;28;20433;-63
2023/06/26 02:35:17;;;;;;;9.93;8.07;;;;;;;;;;5088809;28;20049;-63
2023/06/26 02:37:44;;;;;;;10.75;7.28;;;;;;;;;;5092726;28;20066;-63
2023/06/26 02:40:11;;;;;;;9.25;7.18;;;;;;;;;;5084586;28;20051;-63
2023/06/26 02:42:41;;;;;;;13.18;8.77;;;;;;;;;;5092617;28;20052;-61
2023/06/26 02:45:08;;;;;;;10.13;7.20;;;;;;;;;;5086814;28;20048;-62
2023/06/26 02:47:36;;;;;;;10.20;7.45;;;;;;;;;;5092416;28;20484;-63
2023/06/26 02:50:05;;;;;;;10.55;7.50;;;;;;;;;;5092319;28;20060;-63
2023/06/26 02:52:32;;;;;;;9.18;7.47;;;;;;;;;;5090646;28;20416;-63
2023/06/26 02:54:59;;;;;;;9.80;7.22;;;;;;;;;;5094331;28;20048;-63
2023/06/26 02:57:25;;;;;;;8.60;7.28;;;;;;;;;;5094275;28;20381;-63
2023/06/26 02:59:52;;;;;;;9.85;7.38;;;;;;;;;;5091569;28;20078;-63
2023/06/26 03:02:19;;;;;;;11.45;8.13;;;;;;;;;;5091768;28;20412;-63
2023/06/26 03:04:46;;;;;;;9.15;7.13;;;;;;;;;;5093564;28;20059;-63
2023/06/26 03:07:14;;;;;;;10.02;7.57;;;;;;;;;;5092774;28;20055;-63
2023/06/26 03:09:40;;;;;;;9.48;6.93;;;;;;;;;;5094851;28;20063;-63
2023/06/26 03:12:08;;;;;;;8.02;7.22;;;;;;;;;;5094808;28;20070;-63
2023/06/26 03:14:35;;;;;;;10.80;6.88;;;;;;;;;;5092023;28;20052;-62
2023/06/26 03:17:03;;;;;;;10.18;7.00;;;;;;;;;;5091369;28;20044;-63
2023/06/26 03:19:30;;;;;;;10.97;6.73;;;;;;;;;;5082027;28;20056;-63
2023/06/26 03:21:57;;;;;;;7.22;6.35;;;;;;;;;;5085350;28;20460;-63
2023/06/26 03:24:25;;;;;;;8.07;6.70;;;;;;;;;;5075607;28;20053;-63
2023/06/26 03:26:52;;;;;;;11.02;6.75;;;;;;;;;;5093854;28;20055;-63
2023/06/26 03:29:19;;;;;;;8.73;7.20;;;;;;;;;;5091724;28;20101;-63
2023/06/26 03:31:45;;;;;;;9.98;6.97;;;;;;;;;;5090641;28;20087;-64
2023/06/26 03:34:12;;;;;;;11.32;6.80;;;;;;;;;;5092517;28;20469;-63
2023/06/26 03:36:39;;;;;;;8.93;6.57;;;;;;;;;;5093398;28;20059;-62
2023/06/26 03:39:06;;;;;;;11.57;6.65;;;;;;;;;;5086174;28;20681;-64
2023/06/26 03:41:34;;;;;;;10.05;6.30;;;;;;;;;;5089694;28;20044;-63
2023/06/26 03:44:01;;;;;;;10.52;6.60;;;;;;;;;;5083592;28;20071;-63
2023/06/26 03:46:28;;;;;;;9.10;5.95;;;;;;;;;;5081910;28;20064;-64
2023/06/26 03:48:55;;;;;;;9.75;6.53;;;;;;;;;;5082867;28;20052;-63
2023/06/26 03:51:22;;;;;;;7.90;6.00;;;;;;;;;;5083618;28;20059;-63
2023/06/26 03:53:48;;;;;;;9.20;6.25;;;;;;;;;;5083878;28;20068;-64
2023/06/26 03:56:15;;;;;;;7.47;5.70;;;;;;;;;;5085758;28;20058;-64
2023/06/26 03:58:43;;;;;;;7.72;6.53;;;;;;;;;;5089315;28;20135;-63
2023/06/26 04:01:10;;;;;;;9.57;6.00;;;;;;;;;;5077094;28;20410;-60
2023/06/26 04:03:37;;;;;;;8.43;6.47;;;;;;;;;;5088006;28;20052;-60
2023/06/26 04:06:04;;;;;;;7.57;6.20;;;;;;;;;;5078369;28;20056;-63
2023/06/26 04:08:31;;;;;;;7.15;5.97;;;;;;;;;;5086072;28;20538;-62
2023/06/26 04:10:58;;;;;;;8.45;5.45;;;;;;;;;;5086934;28;20543;-62
2023/06/26 04:13:25;;;;;;;7.85;5.68;;;;;;;;;;5092412;28;20052;-62
2023/06/26 04:15:53;;;;;;;10.05;5.45;;;;;;;;;;5092535;28;20508;-63
2023/06/26 04:18:20;;;;;;;9.15;5.55;;;;;;;;;;5093247;28;20059;-62
2023/06/26 04:21:02;;;;;;;8.07;5.13;;;;;;;;;;5080908;28;20381;-63
2023/06/26 04:23:28;;;;;;;7.40;5.20;;;;;;;;;;5087752;28;20043;-61
2023/06/26 04:25:55;;;;;;;6.65;5.50;;;;;;;;;;5091343;28;20059;-63
2023/06/26 04:28:23;;;;;;;7.68;5.18;;;;;;;;;;5084710;28;20041;-62
2023/06/26 04:30:50;;;;;;;7.55;5.32;;;;;;;;;;5087095;28;20048;-62
2023/06/26 04:33:18;;;;;;;6.32;4.95;;;;;;;;;;5080665;28;20053;-62
2023/06/26 04:35:48;;;;;;;6.30;5.50;;;;;;;;;;5081671;28;20489;-62
2023/06/26 04:38:15;;;;;;;5.97;4.95;;;;;;;;;;5089010;28;20246;-61
2023/06/26 04:40:42;;;;;;;7.15;5.18;;;;;;;;;;5090948;28;20052;-62
2023/06/26 04:43:09;;;;;;;8.32;5.20;;;;;;;;;;5091785;28;20055;-62
2023/06/26 04:45:36;;;;;;;6.95;5.88;;;;;;;;;;5075675;28;20056;-61
2023/06/26 04:48:03;;;;;;;8.48;5.00;;;;;;;;;;5084418;28;20056;-61
2023/06/26 04:50:31;;;;;;;7.45;5.20;;;;;;;;;;5079598;28;20047;-62
2023/06/26 04:52:58;;;;;;;9.27;5.72;;;;;;;;;;5090189;28;20055;-62
2023/06/26 04:55:25;;;;;;;5.88;5.20;;;;;;;;;;5081253;28;20052;-62
2023/06/26 04:57:52;;;;;;;5.35;4.78;;;;;;;;;;5087871;28;20071;-62
2023/06/26 05:00:19;;;;;;;6.43;5.18;;;;;;;;;;5081990;28;20489;-62
2023/06/26 05:02:45;;;;;;;6.25;5.10;;;;;;;;;;5091144;28;20513;-62
2023/06/26 05:05:12;;;;;;;7.75;4.82;;;;;;;;;;5081529;28;20052;-61
2023/06/26 05:07:41;;;;;;;6.25;5.05;;;;;;;;;;5079696;28;20527;-62
2023/06/26 05:10:09;;;;;;;5.23;4.70;;;;;;;;;;5082779;28;20473;-61
2023/06/26 05:12:35;;;;;;;7.13;5.50;;;;;;;;;;5085530;28;20059;-62
2023/06/26 05:15:02;;;;;;;5.13;4.63;;;;;;;;;;5078481;28;20044;-62
2023/06/26 05:17:29;;;;;;;5.32;4.55;;;;;;;;;;5083560;28;20044;-61
2023/06/26 05:19:56;;;;;;;7.18;5.18;;;;;;;;;;5089137;28;20052;-61
2023/06/26 05:22:23;;;;;;;5.05;4.53;;;;;;;;;;5089769;28;20056;-61
2023/06/26 05:24:52;;;;;;;5.85;4.90;;;;;;;;;;5090842;28;20055;-62
2023/06/26 05:27:21;;;;;;;5.68;5.07;;;;;;;;;;5088321;28;20044;-62
2023/06/26 05:29:48;;;;;;;9.57;5.90;;;;;;;;;;5092716;28;20151;-62
2023/06/26 05:32:17;;;;;;;5.93;4.90;;;;;;;;;;5090952;28;20052;-63
2023/06/26 05:34:44;;;;;;;6.60;5.15;;;;;;;;;;5091389;28;20059;-62
2023/06/26 05:37:15;;;;;;;7.57;5.55;;;;;;;;;;5089721;28;20052;-62
2023/06/26 05:39:42;;;;;;;7.85;5.68;;;;;;;;;;5091679;28;20051;-62
2023/06/26 05:42:12;;;;;;;7.47;6.32;;;;;;;;;;5092276;28;20056;-62
2023/06/26 05:44:38;;;;;;;7.63;5.85;;;;;;;;;;5088105;28;20048;-62
2023/06/26 05:47:05;;;;;;;6.45;5.72;;;;;;;;;;5092537;28;20056;-63
2023/06/26 05:49:32;;;;;;;7.55;6.10;;;;;;;;;;5092120;28;20056;-62
2023/06/26 05:51:59;;;;;;;6.75;6.03;;;;;;;;;;5090769;28;20052;-62
2023/06/26 05:54:26;;;;;;;7.60;5.95;;;;;;;;;;5082626;28;20059;-63
2023/06/26 05:56:55;;;;;;;10.25;5.93;;;;;;;;;;5072161;28;20048;-62
2023/06/26 05:59:23;;;;;;;6.70;5.85;;;;;;;;;;5071996;28;20405;-62
2023/06/26 06:01:50;;;;;;;8.60;6.33;;;;;;;;;;5071880;28;20389;-62
2023/06/26 06:04:17;;;;;;;7.18;6.47;;;;;;;;;;5076338;28;20412;-62
2023/06/26 06:06:43;;;;;;;8.73;6.70;;;;;;;;;;5091781;28;20480;-62
2023/06/26 06:09:10;;;;;;;7.05;5.72;;;;;;;;;;5090239;28;20056;-62
2023/06/26 06:11:37;;;;;;;8.02;6.20;;;;;;;;;;5092136;28;20052;-62
2023/06/26 06:14:04;;;;;;;7.82;6.40;;;;;;;;;;5091594;28;20396;-62
2023/06/26 06:16:32;;;;;;;7.95;6.28;;;;;;;;;;5091547;28;20048;-62
2023/06/26 06:18:59;;;;;;;8.65;6.05;;;;;;;;;;5092038;28;20052;-61
2023/06/26 06:21:25;;;;;;;6.75;6.07;;;;;;;;;;5091359;28;20060;-62
2023/06/26 06:23:52;;;;;;;7.88;6.05;;;;;;;;;;5080820;28;20056;-61
2023/06/26 06:26:19;;;;;;;8.13;6.20;;;;;;;;;;5089152;28;20055;-62
2023/06/26 06:28:46;;;;;;;9.55;6.03;;;;;;;;;;5085566;28;20056;-61
2023/06/26 06:31:13;;;;;;;8.07;6.00;;;;;;;;;;5086535;28;20412;-62
2023/06/26 06:33:41;;;;;;;7.72;6.22;;;;;;;;;;5093564;28;20509;-62
2023/06/26 06:36:08;;;;;;;8.55;5.63;;;;;;;;;;5085123;28;20051;-62
2023/06/26 06:38:34;;;;;;;7.88;5.78;;;;;;;;;;5093122;28;20048;-62
2023/06/26 06:41:01;;;;;;;7.90;5.53;;;;;;;;;;5087569;28;20047;-62
2023/06/26 06:43:28;;;;;;;5.97;4.75;;;;;;;;;;5095049;28;20048;-61
2023/06/26 06:45:55;;;;;;;12.18;5.10;;;;;;;;;;5095062;28;20519;-62
2023/06/26 06:48:22;;;;;;;8.02;5.10;;;;;;;;;;5095207;28;20507;-62
2023/06/26 06:50:50;;;;;;;9.82;5.57;;;;;;;;;;5083356;28;20060;-62
2023/06/26 06:53:17;;;;;;;9.23;5.20;;;;;;;;;;5090380;28;20054;-61
2023/06/26 06:55:43;;;;;;;8.82;5.20;;;;;;;;;;5093856;28;20051;-62
2023/06/26 06:58:10;;;;;;;8.68;4.95;;;;;;;;;;5089492;28;20059;-62
2023/06/26 07:00:37;;;;;;;7.38;5.07;;;;;;;;;;5092546;28;20400;-61
2023/06/26 07:03:04;;;;;;;6.18;4.32;;;;;;;;;;5090013;28;20052;-62
2023/06/26 07:05:31;;;;;;;8.05;4.90;;;;;;;;;;5086581;28;20051;-62
2023/06/26 07:07:59;;;;;;;6.53;4.75;;;;;;;;;;5091932;28;20055;-61
2023/06/26 07:10:26;;;;;;;9.70;5.40;;;;;;;;;;5086775;28;20048;-62
2023/06/26 07:12:52;;;;;;;8.05;4.95;;;;;;;;;;5094843;28;20059;-61
2023/06/26 07:15:19;;;;;;;7.35;5.10;;;;;;;;;;5081419;28;20067;-61
2023/06/26 07:17:46;;;;;;;5.72;5.13;;;;;;;;;;5094324;28;20048;-62
2023/06/26 07:20:15;;;;;;;7.40;5.03;;;;;;;;;;5086480;28;20477;-62
2023/06/26 07:22:42;;;;;;;7.30;5.35;;;;;;;;;;5090151;28;20055;-62
2023/06/26 07:25:11;;;;;;;7.43;5.25;;;;;;;;;;5094481;28;20056;-61
2023/06/26 07:27:41;;;;;;;8.10;4.83;;;;;;;;;;5094536;28;20408;-62
2023/06/26 07:30:11;;;;;;;7.75;4.93;;;;;;;;;;5086377;28;20059;-62
2023/06/26 07:32:39;;;;;;;6.15;4.80;;;;;;;;;;5094214;28;20515;-62
2023/06/26 07:35:06;;;;;;;7.90;4.88;;;;;;;;;;5083015;28;20159;-62
2023/06/26 07:37:33;;;;;;;6.45;5.00;;;;;;;;;;5092045;28;20480;-62
2023/06/26 07:40:00;;;;;;;7.97;4.82;;;;;;;;;;5086032;28;20052;-61
2023/06/26 07:42:28;;;;;;;7.55;4.65;;;;;;;;;;5093464;28;20059;-62
2023/06/26 07:44:55;;;;;;;7.97;5.20;;;;;;;;;;5086111;28;20499;-62
2023/06/26 07:47:22;;;;;;;6.95;5.40;;;;;;;;;;5093851;28;20044;-61
2023/06/26 07:49:49;;;;;;;6.75;5.10;;;;;;;;;;5084060;28;20049;-62
2023/06/26 07:52:16;;;;;;;7.53;5.45;;;;;;;;;;5082888;28;20051;-62
2023/06/26 07:54:42;;;;;;;8.63;5.30;;;;;;;;;;5079823;28;20056;-62
2023/06/26 07:57:11;;;;;;;8.55;5.05;;;;;;;;;;5093381;28;20052;-61
2023/06/26 07:59:39;;;;;;;6.32;4.93;;;;;;;;;;5085738;28;20048;-62
2023/06/26 08:02:08;;;;;;;9.43;5.25;;;;;;;;;;5093766;28;20469;-62
2023/06/26 08:04:40;;;;;;;6.30;4.57;;;;;;;;;;5085574;28;20063;-62
2023/06/26 08:07:07;;;;;;;8.27;4.70;;;;;;;;;;5087464;28;20063;-62
2023/06/26 08:09:34;;;;;;;9.20;4.88;;;;;;;;;;5085021;28;20052;-62
2023/06/26 08:12:01;;;;;;;6.88;4.55;;;;;;;;;;5093064;28;20052;-62
2023/06/26 08:14:31;;;;;;;6.07;4.32;;;;;;;;;;5085038;28;20393;-61
2023/06/26 08:17:00;;;;;;;7.63;4.60;;;;;;;;;;5085630;28;20052;-62
2023/06/26 08:19:28;;;;;;;7.32;4.60;;;;;;;;;;5084976;28;20053;-62
2023/06/26 08:21:54;;;;;;;6.95;4.50;;;;;;;;;;5090754;28;20408;-63
2023/06/26 08:24:21;;;;;;;6.88;4.93;;;;;;;;;;5093171;28;20382;-62
2023/06/26 08:26:48;;;;;;;6.50;4.30;;;;;;;;;;5113495;28;20062;-62
2023/06/26 08:29:15;;;;;;;6.72;4.32;;;;;;;;;;5094674;28;20070;-62
2023/06/26 08:31:42;;;;;;;6.30;4.78;;;;;;;;;;5113485;28;20381;-62
2023/06/26 08:34:10;;;;;;;5.85;4.55;;;;;;;;;;5113560;28;20047;-61
2023/06/26 08:36:37;;;;;;;6.88;4.57;;;;;;;;;;5109193;28;20077;-61
2023/06/26 08:39:05;;;;;;;6.68;4.32;;;;;;;;;;5113260;28;20054;-61
2023/06/26 08:41:32;;;;;;;6.13;4.22;;;;;;;;;;5113482;28;20069;-61
2023/06/26 08:43:59;;;;;;;6.60;5.32;;;;;;;;;;5113234;28;20055;-61
2023/06/26 08:46:26;;;;;;;7.63;5.30;;;;;;;;;;5113245;28;20062;-61
2023/06/26 08:48:56;;;;;;;6.65;5.68;;;;;;;;;;5113131;28;20044;-61
2023/06/26 08:51:24;;;;;;;6.75;5.85;;;;;;;;;;5109169;28;20125;-60
2023/06/26 08:53:57;;;;;;;8.85;6.00;;;;;;;;;;5107729;28;20404;-61
2023/06/26 08:56:25;;;;;;;8.85;6.00;;;;;;;;;;5093585;28;20052;-62
2023/06/26 08:58:51;;;;;;;8.13;6.18;;;;;;;;;;5092380;28;20043;-62
2023/06/26 09:01:18;;;;;;;5.93;5.30;;;;;;;;;;5092634;28;20055;-63
2023/06/26 09:03:45;;;;;;;6.93;5.95;;;;;;;;;;5092322;28;20056;-62
2023/06/26 09:06:13;;;;;;;7.10;5.90;;;;;;;;;;5107201;28;20056;-62
2023/06/26 09:08:41;;;;;;;8.63;5.82;;;;;;;;;;5112414;28;20476;-61
2023/06/26 09:11:08;;;;;;;;;;;;;;;;;;5112599;28;20047;-62
2023/06/26 09:13:35;;;;;;;6.38;5.45;;;;;;;;;;5093565;28;19920;-61
2023/06/26 09:16:05;;;;;;;8.23;5.30;;;;;;;;;;5105127;28;20056;-61
2023/06/26 09:18:33;;;;;;;6.80;4.80;;;;;;;;;;5112946;28;20142;-61
2023/06/26 09:21:00;;;;;;;7.97;5.70;;;;;;;;;;5110001;28;20077;-63
2023/06/26 09:23:27;;;;;;;8.25;5.15;;;;;;;;;;5112999;28;20052;-63
2023/06/26 09:25:56;;;;;;;7.68;5.30;;;;;;;;;;5113170;28;20492;-63
2023/06/26 09:28:23;;;;;;;7.78;5.75;;;;;;;;;;5113278;28;20054;-62
2023/06/26 09:30:51;;;;;;;7.90;6.13;;;;;;;;;;5113165;28;20350;-62
2023/06/26 09:33:18;;;;;;;8.35;5.60;;;;;;;;;;5113003;28;20058;-63
2023/06/26 09:35:45;;;;;;;8.47;5.70;;;;;;;;;;5107069;28;20052;-62
2023/06/26 09:38:12;;;;;;;6.95;5.82;;;;;;;;;;5112919;28;20052;-62
2023/06/26 09:40:39;;;;;;;7.35;5.65;;;;;;;;;;5113015;28;20070;-62
2023/06/26 09:43:08;;;;;;;12.18;6.20;;;;;;;;;;5112259;28;20051;-62
2023/06/26 09:45:36;;;;;;;8.55;6.65;;;;;;;;;;5113471;28;20078;-62
2023/06/26 09:48:03;;;;;;;10.82;7.07;;;;;;;;;;5112795;28;20059;-61
2023/06/26 09:50:32;;;;;;;7.95;6.30;;;;;;;;;;5104418;28;20055;-61
2023/06/26 09:52:58;;;;;;;;;;;;;;;;;;5108707;28;20048;-62
2023/06/26 09:55:26;;;;;;;7.90;5.80;;;;;;;;;;5076897;28;19920;-61
2023/06/26 09:57:54;;;;;;;10.07;6.65;;;;;;;;;;5091721;28;20381;-62
2023/06/26 10:00:23;;;;;;;7.20;5.20;;;;;;;;;;5092060;28;20055;-62
2023/06/26 10:02:49;;;;;;;6.63;4.97;;;;;;;;;;5091807;28;20051;-62
2023/06/26 10:05:16;;;;;;;14.40;5.28;;;;;;;;;;5097109;28;20058;-62
2023/06/26 10:07:43;;;;;;;10.07;5.35;;;;;;;;;;5115634;28;20058;-62
2023/06/26 10:10:11;;;;;;;6.90;4.50;;;;;;;;;;5116223;28;20043;-62
2023/06/26 10:12:38;;;;;;;7.30;4.57;;;;;;;;;;5116127;28;20130;-62
2023/06/26 10:15:05;;;;;;;7.83;4.07;;;;;;;;;;5090581;28;20059;-62
2023/06/26 10:17:35;;;;;;;5.75;3.80;;;;;;;;;;5096053;28;20056;-63
2023/06/26 10:20:03;;;;;;;6.82;3.75;;;;;;;;;;5099964;28;20055;-63
2023/06/26 10:22:30;;;;;;;;;;;;;;;;;;5113734;28;20412;-62
2023/06/26 10:24:59;;;;;;;5.15;3.90;;;;;;;;;;5115995;28;19924;-62
2023/06/26 10:27:28;;;;;;;10.98;3.75;;;;;;;;;;5115614;28;20070;-62
2023/06/26 10:29:56;;;;;;;6.70;3.80;;;;;;;;;;5116258;28;20043;-63
2023/06/26 10:32:24;;;;;;;5.95;3.13;;;;;;;;;;5111220;28;20054;-62
2023/06/26 10:34:53;;;;;;;5.93;3.35;;;;;;;;;;5109342;28;20055;-62
2023/06/26 10:37:19;;;;;;;4.97;3.13;;;;;;;;;;5115797;28;20047;-62
2023/06/26 10:39:47;;;;;;;4.68;3.38;;;;;;;;;;5110446;28;20055;-62
2023/06/26 10:42:14;;;;;;;6.38;3.53;;;;;;;;;;5115609;28;20063;-62
2023/06/26 10:44:42;;;;;;;5.30;3.25;;;;;;;;;;5115776;28;20091;-62
2023/06/26 10:47:08;;;;;;;5.70;2.92;;;;;;;;;;5115562;28;20059;-62
2023/06/26 10:49:36;;;;;;;7.63;3.08;;;;;;;;;;5112451;28;20044;-63
2023/06/26 10:52:03;;;;;;;;;;;;;;;;;;5115987;28;20052;-63
2023/06/26 10:54:32;;;;;;;5.22;3.25;;;;;;;;;;5105466;28;19994;-62
2023/06/26 10:56:59;;;;;;;6.65;2.97;;;;;;;;;;5094663;28;20048;-62
2023/06/26 10:59:27;;;;;;;4.60;2.63;;;;;;;;;;5104092;28;20054;-63
2023/06/26 11:01:57;;;;;;;5.45;3.15;;;;;;;;;;5115199;28;20489;-62
2023/06/26 11:04:40;;;;;;;7.40;2.70;;;;;;;;;;5110000;28;20043;-62
2023/06/26 11:07:19;;;;;;;5.68;2.75;;;;;;;;;;5115653;28;20059;-63
2023/06/26 11:09:58;;;;;;;5.03;2.90;;;;;;;;;;5109838;28;20048;-62
2023/06/26 11:12:41;;;;;;;4.47;3.03;;;;;;;;;;5114833;28;20412;-63
2023/06/26 11:15:09;;;;;;;5.15;2.47;;;;;;;;;;5111050;28;20176;-63
2023/06/26 11:17:36;;;;;;;4.70;2.88;;;;;;;;;;5114675;28;20051;-63
2023/06/26 11:20:05;;;;;;;4.38;2.60;;;;;;;;;;5110222;28;20055;-63
2023/06/26 11:22:35;;;;;;;6.88;2.95;;;;;;;;;;5114837;28;20056;-62
2023/06/26 11:25:03;;;;;;;5.15;3.40;;;;;;;;;;5109982;28;20052;-62
2023/06/26 11:27:33;;;;;;;3.65;2.55;;;;;;;;;;5094586;28;20047;-62
2023/06/26 11:30:01;;;;;;;4.80;3.00;;;;;;;;;;5094565;28;20055;-63
2023/06/26 11:32:28;;;;;;;5.85;3.80;;;;;;;;;;5094497;28;20052;-62
2023/06/26 11:34:55;;;;;;;4.18;2.80;;;;;;;;;;5098643;28;20056;-62
2023/06/26 11:37:22;;;;;;;5.97;2.70;;;;;;;;;;5099829;28;20047;-61
2023/06/26 11:39:50;;;;;;;4.85;2.90;;;;;;;;;;5113739;28;20055;-63
2023/06/26 11:42:17;;;;;;;;;;;;;;;;;;5114411;28;20065;-62
2023/06/26 11:44:45;;;;;;;4.22;2.55;;;;;;;;;;5114512;28;20364;-62
2023/06/26 11:47:15;;;;;;;5.18;2.70;;;;;;;;;;5114332;28;20054;-63
2023/06/26 11:49:46;;;;;;;4.20;2.50;;;;;;;;;;5108364;28;20043;-63
2023/06/26 11:52:21;;;;;;;4.03;2.47;;;;;;;;;;5110255;28;20058;-63
2023/06/26 11:54:48;;;;;;;4.80;2.83;;;;;;;;;;5100890;28;20059;-63
2023/06/26 11:57:17;;;;;;;4.43;2.70;;;;;;;;;;5103936;28;20055;-63
2023/06/26 11:59:45;;;;;;;6.20;2.70;;;;;;;;;;5113545;28;20043;-62
2023/06/26 12:02:17;;;;;;;6.25;2.63;;;;;;;;;;5113918;28;20062;-63
2023/06/26 12:04:44;;;;;;;4.25;2.70;;;;;;;;;;5108956;28;20047;-62
2023/06/26 12:07:15;;;;;;;5.68;2.47;;;;;;;;;;5113811;28;20055;-62
2023/06/26 12:09:43;;;;;;;4.75;2.90;;;;;;;;;;5114142;28;20498;-62
2023/06/26 12:12:11;;;;;;;6.60;2.90;;;;;;;;;;5113314;28;20052;-62
2023/06/26 12:14:38;;;;;;;9.63;2.80;;;;;;;;;;5113423;28;20178;-62
2023/06/26 12:17:10;;;;;;;4.70;2.80;;;;;;;;;;5112459;28;20055;-61
2023/06/26 12:19:42;;;;;;;5.05;2.97;;;;;;;;;;5108269;28;20051;-62
2023/06/26 12:22:09;;;;;;;5.47;2.67;;;;;;;;;;5113982;28;20062;-62
2023/06/26 12:24:37;;;;;;;5.13;2.60;;;;;;;;;;5112225;28;20059;-63
2023/06/26 12:27:09;;;;;;;4.43;2.40;;;;;;;;;;5093204;28;20056;-63
2023/06/26 12:29:36;;;;;;;5.93;2.53;;;;;;;;;;5093305;28;20427;-62
2023/06/26 12:32:03;;;;;;;5.95;2.30;;;;;;;;;;5093124;28;20047;-63
2023/06/26 12:34:33;;;;;;;4.63;1.98;;;;;;;;;;5090580;28;20163;-63
2023/06/26 12:37:04;;;;;;;6.93;2.30;;;;;;;;;;5092378;28;20539;-62
2023/06/26 12:39:31;;;;;;;5.88;2.20;;;;;;;;;;5091267;28;20059;-62
2023/06/26 12:41:58;;;;;;;4.82;2.10;;;;;;;;;;5092795;28;20052;-63
2023/06/26 12:44:26;;;;;;;4.03;1.93;;;;;;;;;;5094046;28;20055;-63
2023/06/26 12:46:55;;;;;;;4.47;1.90;;;;;;;;;;5090867;28;20493;-63
2023/06/26 12:49:30;;;;;;;3.22;1.90;;;;;;;;;;5092175;28;20048;-63
2023/06/26 12:52:00;;;;;;;7.25;2.38;;;;;;;;;;5072990;28;20075;-63
2023/06/26 12:54:27;;;;;;;4.32;2.13;;;;;;;;;;5072081;28;20053;-63
2023/06/26 12:56:54;;;;;;;3.60;2.08;;;;;;;;;;5072708;28;20052;-63
2023/06/26 12:59:21;;;;;;;4.22;1.90;;;;;;;;;;5071996;28;20102;-63
2023/06/26 13:01:48;;;;;;;3.42;1.90;;;;;;;;;;5072558;28;20052;-62
2023/06/26 13:04:15;;;;;;;4.47;1.70;;;;;;;;;;5074186;28;20052;-62
2023/06/26 13:06:41;;;;;;;4.03;1.80;;;;;;;;;;5091227;28;20052;-62
2023/06/26 13:09:09;;;;;;;5.53;2.17;;;;;;;;;;5092862;28;20125;-63
2023/06/26 13:11:37;;;;;;;6.05;1.80;;;;;;;;;;5092221;28;20480;-62
2023/06/26 13:14:04;;;;;;;5.97;1.73;;;;;;;;;;5092833;28;20063;-63
2023/06/26 13:16:31;;;;;;;10.43;2.03;;;;;;;;;;5092118;28;20047;-63
2023/06/26 13:18:59;;;;;;;5.47;1.60;;;;;;;;;;5088342;28;20508;-62
2023/06/26 13:21:25;;;;;;;3.42;1.50;;;;;;;;;;5090101;28;20064;-63
2023/06/26 13:23:52;;;;;;;4.93;1.70;;;;;;;;;;5092323;28;20060;-63
2023/06/26 13:26:21;;;;;;;5.07;1.70;;;;;;;;;;5092883;28;20055;-62
2023/06/26 13:28:48;;;;;;;3.67;1.70;;;;;;;;;;5092366;28;20056;-63
2023/06/26 13:31:15;;;;;;;2.60;1.30;;;;;;;;;;5092574;28;20056;-63
2023/06/26 13:33:44;;;;;;;4.07;1.45;;;;;;;;;;5112700;28;20062;-63
2023/06/26 13:36:11;;;;;;;3.20;1.20;;;;;;;;;;5105968;28;20051;-63
2023/06/26 13:38:38;;;;;;;3.88;1.45;;;;;;;;;;5112998;28;20476;-62
2023/06/26 13:41:05;;;;;;;7.95;1.50;;;;;;;;;;5116761;28;20074;-62
2023/06/26 13:43:33;;;;;;;3.65;1.33;;;;;;;;;;5115160;28;20048;-62
2023/06/26 13:46:00;;;;;;;3.35;1.45;;;;;;;;;;5116999;28;20067;-61
2023/06/26 13:48:26;;;;;;;4.45;1.55;;;;;;;;;;5116194;28;20051;-62
2023/06/26 13:50:54;;;;;;;2.78;1.38;;;;;;;;;;5111322;28;20062;-62
2023/06/26 13:53:21;;;;;;;3.22;1.23;;;;;;;;;;5116893;28;20114;-62
2023/06/26 13:55:48;;;;;;;3.25;1.30;;;;;;;;;;5116650;28;20051;-61
2023/06/26 13:58:15;;;;;;;4.47;1.42;;;;;;;;;;5113703;28;20051;-62
2023/06/26 14:00:45;;;;;;;3.08;1.40;;;;;;;;;;5116796;28;20052;-62
2023/06/26 14:03:11;;;;;;;3.25;1.23;;;;;;;;;;5112186;28;20077;-62
2023/06/26 14:05:40;;;;;;;2.75;1.20;;;;;;;;;;5113124;28;20051;-62
2023/06/26 14:08:07;;;;;;;3.47;1.45;;;;;;;;;;5116409;28;20128;-62
2023/06/26 14:10:34;;;;;;;4.80;1.65;;;;;;;;;;5116267;28;20047;-61
2023/06/26 14:13:01;;;;;;;3.10;1.40;;;;;;;;;;5116631;28;20052;-63
2023/06/26 14:15:28;;;;;;;3.55;1.17;;;;;;;;;;5116247;28;20059;-62
2023/06/26 14:17:56;;;;;;;3.08;1.30;;;;;;;;;;5106494;28;20048;-62
2023/06/26 14:20:25;;;;;;;3.83;1.33;;;;;;;;;;5107943;28;20070;-62
2023/06/26 14:22:51;;;;;;;2.78;1.27;;;;;;;;;;5116267;28;20495;-62
2023/06/26 14:25:18;;;;;;;2.42;1.00;;;;;;;;;;5112383;28;20432;-62
2023/06/26 14:27:45;;;;;;;2.97;1.52;;;;;;;;;;5108806;28;20043;-62
2023/06/26 14:30:12;;;;;;;3.28;1.10;;;;;;;;;;5115825;28;20055;-62
2023/06/26 14:32:39;;;;;;;3.75;1.33;;;;;;;;;;5115855;28;20054;-62
2023/06/26 14:35:08;;;;;;;3.63;1.20;;;;;;;;;;5111297;28;20052;-62
2023/06/26 14:37:34;;;;;;;;;;;;;;;;;;5116551;28;20055;-62
2023/06/26 14:40:01;;;;;;;3.92;1.33;;;;;;;;;;5115480;28;20287;-62
2023/06/26 14:42:28;;;;;;;4.93;1.15;;;;;;;;;;5115790;28;20047;-63
2023/06/26 14:44:55;;;;;;;3.15;1.20;;;;;;;;;;5104817;28;20056;-62